createdAt,value
2018-01-26T00:00:20.945Z,956.91
2018-01-26T00:01:20.885Z,956.88
2018-01-26T00:02:20.827Z,956.84
2018-01-26T00:03:20.766Z,956.86
2018-01-26T00:04:20.706Z,956.83
2018-01-26T00:05:20.646Z,956.84
2018-01-26T00:06:20.585Z,956.84
2018-01-26T00:07:20.528Z,956.81
2018-01-26T00:08:20.519Z,956.83
2018-01-26T00:09:20.408Z,956.84
2018-01-26T00:10:20.348Z,956.77
2018-01-26T00:11:20.286Z,956.78
2018-01-26T00:12:20.230Z,956.75
2018-01-26T00:13:20.168Z,956.73
2018-01-26T00:14:20.108Z,956.72
2018-01-26T00:15:20.047Z,956.73
2018-01-26T00:16:19.988Z,956.73
2018-01-26T00:17:19.928Z,956.74
2018-01-26T00:18:19.867Z,956.74
2018-01-26T00:19:19.810Z,956.74
2018-01-26T00:20:19.748Z,956.77
2018-01-26T00:21:19.688Z,956.72
2018-01-26T00:22:19.629Z,956.75
2018-01-26T00:23:19.568Z,956.85
2018-01-26T00:24:19.509Z,956.83
2018-01-26T00:25:19.451Z,956.86
2018-01-26T00:26:19.389Z,956.86
2018-01-26T00:27:19.328Z,956.82
2018-01-26T00:28:19.269Z,956.85
2018-01-26T00:29:19.207Z,956.84
2018-01-26T00:30:19.148Z,956.85
2018-01-26T00:31:19.095Z,956.82
2018-01-26T00:32:19.028Z,956.84
2018-01-26T00:33:18.968Z,956.80
2018-01-26T00:34:18.907Z,956.85
2018-01-26T00:35:18.846Z,956.84
2018-01-26T00:36:18.789Z,956.86
2018-01-26T00:37:18.728Z,956.87
2018-01-26T00:38:18.665Z,956.81
2018-01-26T00:39:18.606Z,956.81
2018-01-26T00:40:18.547Z,956.81
2018-01-26T00:41:18.485Z,956.81
2018-01-26T00:42:18.432Z,956.83
2018-01-26T00:43:18.365Z,956.86
2018-01-26T00:44:18.305Z,956.88
2018-01-26T00:45:18.248Z,956.91
2018-01-26T00:46:18.185Z,956.87
2018-01-26T00:47:18.169Z,956.87
2018-01-26T00:48:18.065Z,956.85
2018-01-26T00:49:18.006Z,956.88
2018-01-26T00:50:17.944Z,956.84
2018-01-26T00:51:17.930Z,956.79
2018-01-26T00:52:17.825Z,956.79
2018-01-26T00:53:17.766Z,956.77
2018-01-26T00:54:17.704Z,956.78
2018-01-26T00:55:17.643Z,956.80
2018-01-26T00:56:17.594Z,956.82
2018-01-26T00:57:17.523Z,956.78
2018-01-26T00:58:17.463Z,956.76
2018-01-26T00:59:17.402Z,956.73
2018-01-26T01:00:17.341Z,956.73
2018-01-26T01:01:17.282Z,956.74
2018-01-26T01:02:17.219Z,956.69
2018-01-26T01:03:17.159Z,956.77
2018-01-26T01:04:17.099Z,956.72
2018-01-26T01:05:17.040Z,956.68
2018-01-26T01:06:16.976Z,956.64
2018-01-26T01:07:16.918Z,956.60
2018-01-26T01:08:16.861Z,956.63
2018-01-26T01:09:16.798Z,956.64
2018-01-26T01:10:16.740Z,956.64
2018-01-26T01:11:16.676Z,956.63
2018-01-26T01:12:16.616Z,956.60
2018-01-26T01:13:16.557Z,956.59
2018-01-26T01:14:16.497Z,956.61
2018-01-26T01:15:16.436Z,956.61
2018-01-26T01:16:16.376Z,956.63
2018-01-26T01:17:16.313Z,956.66
2018-01-26T01:18:16.262Z,956.65
2018-01-26T01:19:16.197Z,956.61
2018-01-26T01:20:16.136Z,956.60
2018-01-26T01:21:16.075Z,956.57
2018-01-26T01:22:16.021Z,956.56
2018-01-26T01:23:15.954Z,956.58
2018-01-26T01:24:15.894Z,956.61
2018-01-26T01:25:15.833Z,956.64
2018-01-26T01:26:15.773Z,956.69
2018-01-26T01:27:15.712Z,956.70
2018-01-26T01:28:15.652Z,956.71
2018-01-26T01:29:15.594Z,956.70
2018-01-26T01:30:15.529Z,956.65
2018-01-26T01:31:15.471Z,956.65
2018-01-26T01:32:15.411Z,956.62
2018-01-26T01:33:15.352Z,956.62
2018-01-26T01:34:15.288Z,956.59
2018-01-26T01:35:15.233Z,956.61
2018-01-26T01:36:15.169Z,956.55
2018-01-26T01:37:15.111Z,956.57
2018-01-26T01:38:15.049Z,956.54
2018-01-26T01:39:14.988Z,956.53
2018-01-26T01:40:14.928Z,956.54
2018-01-26T01:41:14.867Z,956.52
2018-01-26T01:42:14.807Z,956.54
2018-01-26T01:43:14.748Z,956.51
2018-01-26T01:44:14.687Z,956.53
2018-01-26T01:45:14.636Z,956.47
2018-01-26T01:46:14.565Z,956.46
2018-01-26T01:47:14.504Z,956.46
2018-01-26T01:48:14.453Z,956.49
2018-01-26T01:49:14.390Z,956.47
2018-01-26T01:50:14.324Z,956.48
2018-01-26T01:51:14.263Z,956.44
2018-01-26T01:52:14.206Z,956.44
2018-01-26T01:53:14.143Z,956.48
2018-01-26T01:54:14.080Z,956.47
2018-01-26T01:55:14.021Z,956.47
2018-01-26T01:56:13.962Z,956.46
2018-01-26T01:57:13.905Z,956.41
2018-01-26T01:58:13.853Z,956.41
2018-01-26T01:59:13.779Z,956.40
2018-01-26T02:00:13.718Z,956.38
2018-01-26T02:01:13.667Z,956.36
2018-01-26T02:02:13.598Z,956.35
2018-01-26T02:03:13.531Z,956.35
2018-01-26T02:04:13.482Z,956.36
2018-01-26T02:05:13.417Z,956.34
2018-01-26T02:06:13.355Z,956.38
2018-01-26T02:07:13.296Z,956.37
2018-01-26T02:08:13.233Z,956.32
2018-01-26T02:09:13.176Z,956.35
2018-01-26T02:10:13.115Z,956.34
2018-01-26T02:11:13.049Z,956.33
2018-01-26T02:12:12.990Z,956.29
2018-01-26T02:13:12.933Z,956.23
2018-01-26T02:14:12.870Z,956.25
2018-01-26T02:15:12.809Z,956.25
2018-01-26T02:16:12.749Z,956.26
2018-01-26T02:17:12.684Z,956.26
2018-01-26T02:18:12.625Z,956.22
2018-01-26T02:19:12.566Z,956.23
2018-01-26T02:20:12.503Z,956.20
2018-01-26T02:21:12.441Z,956.20
2018-01-26T02:22:12.378Z,956.22
2018-01-26T02:23:12.319Z,956.18
2018-01-26T02:24:12.261Z,956.19
2018-01-26T02:25:12.201Z,956.21
2018-01-26T02:26:12.143Z,956.23
2018-01-26T02:27:12.075Z,956.23
2018-01-26T02:28:12.013Z,956.20
2018-01-26T02:29:11.953Z,956.18
2018-01-26T02:30:11.892Z,956.14
2018-01-26T02:31:11.832Z,956.12
2018-01-26T02:32:11.771Z,956.10
2018-01-26T02:33:11.709Z,956.15
2018-01-26T02:34:11.646Z,956.10
2018-01-26T02:35:11.587Z,956.11
2018-01-26T02:36:11.534Z,956.09
2018-01-26T02:37:11.471Z,956.09
2018-01-26T02:38:11.404Z,956.09
2018-01-26T02:39:11.342Z,956.06
2018-01-26T02:40:11.290Z,956.02
2018-01-26T02:41:11.219Z,956.01
2018-01-26T02:42:11.160Z,956.04
2018-01-26T02:43:11.102Z,956.01
2018-01-26T02:44:11.035Z,956.03
2018-01-26T02:45:10.969Z,956.02
2018-01-26T02:46:10.915Z,956.03
2018-01-26T02:47:10.853Z,956.05
2018-01-26T02:48:10.793Z,956.04
2018-01-26T02:49:10.733Z,955.96
2018-01-26T02:50:10.670Z,955.98
2018-01-26T02:51:10.609Z,955.97
2018-01-26T02:52:10.546Z,955.96
2018-01-26T02:53:10.487Z,955.98
2018-01-26T02:54:10.430Z,956.00
2018-01-26T02:55:10.365Z,956.00
2018-01-26T02:56:10.303Z,955.98
2018-01-26T02:57:10.244Z,956.01
2018-01-26T02:58:10.180Z,956.01
2018-01-26T02:59:10.122Z,956.02
2018-01-26T03:00:10.060Z,956.04
2018-01-26T03:01:10.050Z,956.02
2018-01-26T03:02:09.936Z,956.01
2018-01-26T03:03:09.876Z,956.07
2018-01-26T03:04:09.814Z,956.06
2018-01-26T03:05:09.756Z,956.07
2018-01-26T03:06:09.692Z,956.05
2018-01-26T03:07:09.632Z,956.06
2018-01-26T03:08:09.575Z,956.08
2018-01-26T03:09:09.510Z,956.09
2018-01-26T03:10:09.447Z,956.08
2018-01-26T03:11:09.387Z,956.06
2018-01-26T03:12:09.328Z,956.05
2018-01-26T03:13:09.265Z,956.08
2018-01-26T03:14:09.205Z,956.11
2018-01-26T03:15:09.144Z,956.17
2018-01-26T03:16:09.082Z,956.12
2018-01-26T03:17:09.023Z,956.12
2018-01-26T03:18:08.961Z,956.11
2018-01-26T03:19:08.903Z,956.10
2018-01-26T03:20:08.838Z,956.12
2018-01-26T03:21:08.776Z,956.13
2018-01-26T03:22:08.716Z,956.16
2018-01-26T03:23:08.657Z,956.17
2018-01-26T03:24:08.592Z,956.18
2018-01-26T03:25:08.530Z,956.16
2018-01-26T03:26:08.469Z,956.15
2018-01-26T03:27:08.410Z,956.14
2018-01-26T03:28:08.347Z,956.20
2018-01-26T03:29:08.287Z,956.26
2018-01-26T03:30:08.226Z,956.23
2018-01-26T03:31:08.163Z,956.25
2018-01-26T03:32:08.102Z,956.17
2018-01-26T03:33:08.040Z,956.13
2018-01-26T03:34:07.979Z,956.13
2018-01-26T03:35:07.920Z,956.17
2018-01-26T03:36:07.858Z,956.24
2018-01-26T03:37:07.797Z,956.26
2018-01-26T03:38:07.733Z,956.22
2018-01-26T03:39:07.671Z,956.09
2018-01-26T03:40:07.616Z,956.04
2018-01-26T03:41:07.551Z,956.07
2018-01-26T03:42:07.489Z,956.14
2018-01-26T03:43:07.427Z,956.22
2018-01-26T03:44:07.365Z,956.22
2018-01-26T03:45:07.304Z,956.19
2018-01-26T03:46:07.242Z,956.11
2018-01-26T03:47:07.180Z,955.97
2018-01-26T03:48:07.128Z,955.94
2018-01-26T03:49:07.062Z,956.01
2018-01-26T03:50:06.997Z,956.12
2018-01-26T03:51:06.937Z,956.15
2018-01-26T03:52:06.876Z,956.18
2018-01-26T03:53:06.814Z,956.16
2018-01-26T03:54:06.753Z,956.11
2018-01-26T03:55:06.690Z,956.11
2018-01-26T03:56:06.631Z,956.06
2018-01-26T03:57:06.568Z,956.16
2018-01-26T03:58:06.505Z,956.29
2018-01-26T03:59:06.444Z,956.29
2018-01-26T04:00:06.383Z,956.27
2018-01-26T04:01:06.323Z,956.22
2018-01-26T04:02:06.262Z,956.19
2018-01-26T04:03:06.201Z,956.10
2018-01-26T04:04:06.138Z,956.13
2018-01-26T04:05:06.078Z,956.10
2018-01-26T04:06:06.016Z,956.11
2018-01-26T04:07:05.953Z,956.10
2018-01-26T04:08:05.894Z,956.15
2018-01-26T04:09:05.831Z,956.17
2018-01-26T04:10:05.771Z,956.16
2018-01-26T04:11:05.709Z,956.12
2018-01-26T04:12:05.652Z,956.09
2018-01-26T04:13:05.592Z,956.04
2018-01-26T04:14:05.526Z,956.06
2018-01-26T04:15:05.466Z,956.01
2018-01-26T04:16:05.403Z,956.05
2018-01-26T04:17:05.342Z,956.09
2018-01-26T04:18:05.281Z,956.12
2018-01-26T04:19:05.218Z,956.08
2018-01-26T04:20:05.157Z,956.09
2018-01-26T04:21:05.095Z,956.06
2018-01-26T04:22:05.037Z,956.09
2018-01-26T04:23:04.976Z,956.12
2018-01-26T04:24:04.913Z,956.07
2018-01-26T04:25:04.854Z,956.08
2018-01-26T04:26:04.789Z,956.05
2018-01-26T04:27:04.729Z,956.04
2018-01-26T04:28:04.668Z,956.01
2018-01-26T04:29:04.606Z,955.97
2018-01-26T04:30:04.544Z,955.99
2018-01-26T04:31:04.481Z,956.06
2018-01-26T04:32:04.420Z,956.07
2018-01-26T04:33:04.361Z,956.15
2018-01-26T04:34:04.298Z,956.21
2018-01-26T04:35:04.237Z,956.15
2018-01-26T04:36:04.178Z,956.20
2018-01-26T04:37:04.117Z,956.19
2018-01-26T04:38:04.054Z,956.22
2018-01-26T04:39:03.992Z,956.19
2018-01-26T04:40:03.931Z,956.22
2018-01-26T04:41:03.869Z,956.22
2018-01-26T04:42:03.808Z,956.17
2018-01-26T04:43:03.746Z,956.14
2018-01-26T04:44:03.687Z,956.17
2018-01-26T04:45:03.624Z,956.13
2018-01-26T04:46:03.562Z,956.13
2018-01-26T04:47:03.503Z,956.15
2018-01-26T04:48:03.439Z,956.14
2018-01-26T04:49:03.380Z,956.17
2018-01-26T04:50:03.320Z,956.15
2018-01-26T04:51:03.256Z,956.11
2018-01-26T04:52:03.197Z,956.12
2018-01-26T04:53:03.136Z,956.12
2018-01-26T04:54:03.071Z,956.12
2018-01-26T04:55:03.018Z,956.21
2018-01-26T04:56:02.952Z,956.13
2018-01-26T04:57:02.891Z,956.19
2018-01-26T04:58:02.830Z,956.12
2018-01-26T04:59:02.766Z,956.12
2018-01-26T05:00:02.706Z,956.09
2018-01-26T05:01:02.645Z,956.12
2018-01-26T05:02:02.584Z,956.15
2018-01-26T05:03:02.522Z,956.15
2018-01-26T05:04:02.460Z,956.12
2018-01-26T05:05:02.403Z,956.15
2018-01-26T05:06:02.338Z,956.13
2018-01-26T05:07:02.278Z,956.10
2018-01-26T05:08:02.218Z,956.08
2018-01-26T05:09:02.157Z,956.09
2018-01-26T05:10:02.097Z,956.11
2018-01-26T05:11:02.036Z,956.11
2018-01-26T05:12:01.974Z,956.17
2018-01-26T05:13:01.914Z,956.20
2018-01-26T05:14:01.852Z,956.17
2018-01-26T05:15:01.789Z,956.10
2018-01-26T05:16:01.727Z,956.10
2018-01-26T05:17:01.667Z,956.17
2018-01-26T05:18:01.608Z,956.19
2018-01-26T05:19:01.547Z,956.20
2018-01-26T05:20:01.485Z,956.20
2018-01-26T05:21:01.424Z,956.21
2018-01-26T05:22:01.361Z,956.21
2018-01-26T05:23:01.300Z,956.24
2018-01-26T05:24:01.239Z,956.29
2018-01-26T05:25:01.179Z,956.25
2018-01-26T05:26:01.117Z,956.28
2018-01-26T05:27:01.057Z,956.32
2018-01-26T05:28:00.994Z,956.28
2018-01-26T05:29:00.956Z,956.24
2018-01-26T05:30:00.870Z,956.25
2018-01-26T05:31:00.809Z,956.24
2018-01-26T05:32:00.749Z,956.26
2018-01-26T05:33:00.688Z,956.31
2018-01-26T05:34:00.627Z,956.29
2018-01-26T05:35:00.565Z,956.24
2018-01-26T05:36:00.505Z,956.24
2018-01-26T05:37:00.442Z,956.26
2018-01-26T05:38:00.380Z,956.26
2018-01-26T05:39:00.321Z,956.27
2018-01-26T05:40:00.259Z,956.30
2018-01-26T05:41:00.196Z,956.30
2018-01-26T05:42:00.135Z,956.32
2018-01-26T05:43:00.074Z,956.34
2018-01-26T05:44:00.062Z,956.34
2018-01-26T05:44:59.952Z,956.35
2018-01-26T05:45:59.890Z,956.41
2018-01-26T05:46:59.829Z,956.39
2018-01-26T05:47:59.768Z,956.39
2018-01-26T05:48:59.706Z,956.44
2018-01-26T05:49:59.645Z,956.43
2018-01-26T05:50:59.584Z,956.47
2018-01-26T05:51:59.524Z,956.45
2018-01-26T05:52:59.463Z,956.47
2018-01-26T05:53:59.400Z,956.50
2018-01-26T05:54:59.341Z,956.53
2018-01-26T05:55:59.302Z,956.54
2018-01-26T05:56:59.219Z,956.58
2018-01-26T05:57:59.156Z,956.65
2018-01-26T05:58:59.098Z,956.69
2018-01-26T05:59:59.035Z,956.71
2018-01-26T06:00:58.971Z,956.74
2018-01-26T06:01:58.911Z,956.70
2018-01-26T06:02:58.852Z,956.72
2018-01-26T06:03:58.787Z,956.67
2018-01-26T06:04:58.729Z,956.64
2018-01-26T06:05:58.668Z,956.66
2018-01-26T06:06:58.605Z,956.61
2018-01-26T06:07:58.546Z,956.67
2018-01-26T06:08:58.483Z,956.69
2018-01-26T06:09:58.421Z,956.68
2018-01-26T06:10:58.359Z,956.65
2018-01-26T06:11:58.299Z,956.64
2018-01-26T06:12:58.238Z,956.64
2018-01-26T06:13:58.175Z,956.65
2018-01-26T06:14:58.115Z,956.69
2018-01-26T06:15:58.054Z,956.71
2018-01-26T06:16:57.992Z,956.73
2018-01-26T06:17:57.933Z,956.74
2018-01-26T06:18:57.870Z,956.73
2018-01-26T06:19:57.809Z,956.70
2018-01-26T06:20:57.747Z,956.75
2018-01-26T06:21:57.687Z,956.71
2018-01-26T06:22:57.624Z,956.74
2018-01-26T06:23:57.563Z,956.78
2018-01-26T06:24:57.502Z,956.77
2018-01-26T06:25:57.440Z,956.73
2018-01-26T06:26:57.379Z,956.69
2018-01-26T06:27:57.318Z,956.68
2018-01-26T06:28:57.256Z,956.71
2018-01-26T06:29:57.194Z,956.70
2018-01-26T06:30:57.133Z,956.67
2018-01-26T06:31:57.073Z,956.71
2018-01-26T06:32:57.012Z,956.67
2018-01-26T06:33:56.949Z,956.66
2018-01-26T06:34:56.888Z,956.68
2018-01-26T06:35:56.825Z,956.73
2018-01-26T06:36:56.766Z,956.75
2018-01-26T06:37:56.704Z,956.73
2018-01-26T06:38:56.640Z,956.79
2018-01-26T06:39:56.581Z,956.76
2018-01-26T06:40:56.518Z,956.75
2018-01-26T06:41:56.456Z,956.78
2018-01-26T06:42:56.398Z,956.78
2018-01-26T06:43:56.334Z,956.79
2018-01-26T06:44:56.273Z,956.80
2018-01-26T06:45:56.211Z,956.81
2018-01-26T06:46:56.149Z,956.80
2018-01-26T06:47:56.089Z,956.81
2018-01-26T06:48:56.018Z,956.80
2018-01-26T06:49:55.966Z,956.83
2018-01-26T06:50:55.904Z,956.78
2018-01-26T06:51:55.841Z,956.80
2018-01-26T06:52:55.781Z,956.80
2018-01-26T06:53:55.719Z,956.82
2018-01-26T06:54:55.658Z,956.86
2018-01-26T06:55:55.598Z,956.89
2018-01-26T06:56:55.537Z,956.85
2018-01-26T06:57:55.475Z,956.89
2018-01-26T06:58:55.413Z,956.89
2018-01-26T06:59:55.351Z,956.83
2018-01-26T07:00:55.290Z,956.89
2018-01-26T07:01:55.245Z,956.86
2018-01-26T07:02:55.166Z,956.94
2018-01-26T07:03:55.105Z,956.87
2018-01-26T07:04:55.045Z,956.93
2018-01-26T07:05:54.984Z,956.95
2018-01-26T07:06:54.921Z,956.93
2018-01-26T07:07:54.861Z,956.90
2018-01-26T07:08:54.798Z,956.93
2018-01-26T07:09:54.737Z,956.91
2018-01-26T07:10:54.676Z,956.94
2018-01-26T07:11:54.615Z,956.88
2018-01-26T07:12:54.554Z,956.89
2018-01-26T07:13:54.490Z,956.93
2018-01-26T07:14:54.429Z,956.91
2018-01-26T07:15:54.373Z,956.92
2018-01-26T07:16:54.310Z,957.00
2018-01-26T07:17:54.252Z,956.96
2018-01-26T07:18:54.185Z,957.00
2018-01-26T07:19:54.124Z,957.02
2018-01-26T07:20:54.065Z,957.01
2018-01-26T07:21:54.002Z,957.02
2018-01-26T07:22:53.939Z,957.08
2018-01-26T07:23:53.882Z,957.10
2018-01-26T07:24:53.826Z,957.12
2018-01-26T07:25:53.760Z,957.13
2018-01-26T07:26:53.695Z,957.12
2018-01-26T07:27:53.632Z,957.16
2018-01-26T07:28:53.573Z,957.15
2018-01-26T07:29:53.510Z,957.16
2018-01-26T07:30:53.451Z,957.12
2018-01-26T07:31:53.387Z,957.14
2018-01-26T07:32:53.328Z,957.13
2018-01-26T07:33:53.267Z,957.18
2018-01-26T07:34:53.203Z,957.16
2018-01-26T07:35:53.144Z,957.19
2018-01-26T07:36:53.084Z,957.25
2018-01-26T07:37:53.024Z,957.22
2018-01-26T07:38:52.959Z,957.24
2018-01-26T07:39:52.897Z,957.24
2018-01-26T07:40:52.841Z,957.27
2018-01-26T07:41:52.775Z,957.26
2018-01-26T07:42:52.713Z,957.28
2018-01-26T07:43:52.656Z,957.28
2018-01-26T07:44:52.593Z,957.29
2018-01-26T07:45:52.534Z,957.25
2018-01-26T07:46:52.471Z,957.33
2018-01-26T07:47:52.410Z,957.31
2018-01-26T07:48:52.348Z,957.36
2018-01-26T07:49:52.288Z,957.40
2018-01-26T07:50:52.226Z,957.36
2018-01-26T07:51:52.165Z,957.37
2018-01-26T07:52:52.104Z,957.31
2018-01-26T07:53:52.044Z,957.28
2018-01-26T07:54:51.986Z,957.28
2018-01-26T07:55:51.922Z,957.29
2018-01-26T07:56:51.864Z,957.23
2018-01-26T07:57:51.800Z,957.29
2018-01-26T07:58:51.741Z,957.26
2018-01-26T07:59:51.679Z,957.31
2018-01-26T08:00:51.622Z,957.28
2018-01-26T08:01:51.557Z,957.29
2018-01-26T08:02:51.502Z,957.26
2018-01-26T08:03:51.439Z,957.26
2018-01-26T08:04:51.383Z,957.30
2018-01-26T08:05:51.317Z,957.31
2018-01-26T08:06:51.277Z,957.28
2018-01-26T08:07:51.193Z,957.32
2018-01-26T08:08:51.134Z,957.30
2018-01-26T08:09:51.071Z,957.32
2018-01-26T08:10:51.011Z,957.26
2018-01-26T08:11:50.942Z,957.28
2018-01-26T08:12:50.889Z,957.31
2018-01-26T08:13:50.830Z,957.29
2018-01-26T08:14:50.768Z,957.30
2018-01-26T08:15:50.706Z,957.30
2018-01-26T08:16:50.645Z,957.29
2018-01-26T08:17:50.585Z,957.24
2018-01-26T08:18:50.526Z,957.29
2018-01-26T08:19:50.466Z,957.29
2018-01-26T08:20:50.407Z,957.29
2018-01-26T08:21:50.345Z,957.30
2018-01-26T08:22:50.284Z,957.30
2018-01-26T08:23:50.222Z,957.34
2018-01-26T08:24:50.180Z,957.33
2018-01-26T08:25:50.108Z,957.34
2018-01-26T08:26:50.041Z,957.39
2018-01-26T08:27:49.981Z,957.39
2018-01-26T08:28:49.919Z,957.42
2018-01-26T08:29:49.862Z,957.44
2018-01-26T08:30:49.800Z,957.41
2018-01-26T08:31:49.742Z,957.37
2018-01-26T08:32:49.679Z,957.44
2018-01-26T08:33:49.621Z,957.45
2018-01-26T08:34:49.557Z,957.46
2018-01-26T08:35:49.503Z,957.43
2018-01-26T08:36:49.440Z,957.39
2018-01-26T08:37:49.376Z,957.41
2018-01-26T08:38:49.316Z,957.40
2018-01-26T08:39:49.257Z,957.41
2018-01-26T08:40:49.197Z,957.45
2018-01-26T08:41:49.137Z,957.49
2018-01-26T08:42:49.077Z,957.46
2018-01-26T08:43:49.016Z,957.50
2018-01-26T08:44:48.956Z,957.49
2018-01-26T08:45:48.896Z,957.41
2018-01-26T08:46:48.835Z,957.39
2018-01-26T08:47:48.776Z,957.43
2018-01-26T08:48:48.717Z,957.42
2018-01-26T08:49:48.653Z,957.46
2018-01-26T08:50:48.595Z,957.46
2018-01-26T08:51:48.539Z,957.49
2018-01-26T08:52:48.480Z,957.51
2018-01-26T08:53:48.416Z,957.50
2018-01-26T08:54:48.356Z,957.52
2018-01-26T08:55:48.296Z,957.52
2018-01-26T08:56:48.236Z,957.52
2018-01-26T08:57:48.177Z,957.54
2018-01-26T08:58:48.116Z,957.58
2018-01-26T08:59:48.057Z,957.58
2018-01-26T09:00:47.997Z,957.61
2018-01-26T09:01:47.936Z,957.68
2018-01-26T09:02:47.883Z,957.68
2018-01-26T09:03:47.819Z,957.72
2018-01-26T09:04:47.776Z,957.70
2018-01-26T09:05:47.700Z,957.72
2018-01-26T09:06:47.641Z,957.70
2018-01-26T09:07:47.578Z,957.66
2018-01-26T09:08:47.518Z,957.72
2018-01-26T09:09:47.460Z,957.74
2018-01-26T09:10:47.400Z,957.76
2018-01-26T09:11:47.338Z,957.78
2018-01-26T09:12:47.280Z,957.78
2018-01-26T09:13:47.219Z,957.80
2018-01-26T09:14:47.160Z,957.78
2018-01-26T09:15:47.101Z,957.85
2018-01-26T09:16:47.048Z,957.84
2018-01-26T09:17:46.983Z,957.84
2018-01-26T09:18:46.924Z,957.85
2018-01-26T09:19:46.865Z,957.90
2018-01-26T09:20:46.805Z,957.92
2018-01-26T09:21:46.747Z,957.94
2018-01-26T09:22:46.685Z,957.95
2018-01-26T09:23:46.625Z,957.95
2018-01-26T09:24:46.569Z,958.00
2018-01-26T09:25:46.508Z,957.92
2018-01-26T09:26:46.451Z,957.87
2018-01-26T09:27:46.388Z,957.88
2018-01-26T09:28:46.330Z,957.88
2018-01-26T09:29:46.271Z,957.92
2018-01-26T09:30:46.214Z,957.90
2018-01-26T09:31:46.152Z,957.91
2018-01-26T09:32:46.091Z,957.95
2018-01-26T09:33:46.035Z,958.00
2018-01-26T09:34:45.976Z,958.00
2018-01-26T09:35:45.916Z,958.03
2018-01-26T09:36:45.856Z,958.02
2018-01-26T09:37:45.798Z,958.06
2018-01-26T09:38:45.739Z,958.10
2018-01-26T09:39:45.680Z,958.08
2018-01-26T09:40:45.622Z,958.09
2018-01-26T09:41:45.560Z,958.10
2018-01-26T09:42:45.503Z,958.13
2018-01-26T09:43:45.445Z,958.12
2018-01-26T09:44:45.386Z,958.14
2018-01-26T09:45:45.325Z,958.14
2018-01-26T09:46:45.269Z,958.14
2018-01-26T09:47:45.207Z,958.13
2018-01-26T09:48:45.206Z,958.14
2018-01-26T09:49:45.089Z,958.15
2018-01-26T09:50:45.033Z,958.22
2018-01-26T09:51:44.975Z,958.17
2018-01-26T09:52:44.912Z,958.16
2018-01-26T09:53:44.853Z,958.18
2018-01-26T09:54:44.796Z,958.24
2018-01-26T09:55:44.737Z,958.22
2018-01-26T09:56:44.679Z,958.27
2018-01-26T09:57:44.622Z,958.28
2018-01-26T09:58:44.563Z,958.27
2018-01-26T09:59:44.529Z,958.31
2018-01-26T10:00:44.453Z,958.37
2018-01-26T10:01:44.388Z,958.33
2018-01-26T10:02:44.326Z,958.34
2018-01-26T10:03:44.266Z,958.38
2018-01-26T10:04:44.209Z,958.38
2018-01-26T10:05:44.149Z,958.40
2018-01-26T10:06:44.090Z,958.44
2018-01-26T10:07:44.033Z,958.45
2018-01-26T10:08:43.977Z,958.49
2018-01-26T10:09:43.915Z,958.45
2018-01-26T10:10:43.858Z,958.53
2018-01-26T10:11:43.798Z,958.46
2018-01-26T10:12:43.739Z,958.54
2018-01-26T10:13:43.681Z,958.53
2018-01-26T10:14:43.620Z,958.48
2018-01-26T10:15:43.565Z,958.55
2018-01-26T10:16:43.503Z,958.59
2018-01-26T10:17:43.445Z,958.59
2018-01-26T10:18:43.386Z,958.57
2018-01-26T10:19:43.328Z,958.58
2018-01-26T10:20:43.269Z,958.58
2018-01-26T10:21:43.209Z,958.55
2018-01-26T10:22:43.153Z,958.56
2018-01-26T10:23:43.094Z,958.61
2018-01-26T10:24:43.035Z,958.59
2018-01-26T10:25:42.975Z,958.59
2018-01-26T10:26:42.918Z,958.59
2018-01-26T10:27:42.857Z,958.68
2018-01-26T10:28:42.800Z,958.62
2018-01-26T10:29:42.784Z,958.65
2018-01-26T10:30:42.680Z,958.74
2018-01-26T10:31:42.622Z,958.69
2018-01-26T10:32:42.564Z,958.75
2018-01-26T10:33:42.507Z,958.74
2018-01-26T10:34:42.447Z,958.74
2018-01-26T10:35:42.387Z,958.74
2018-01-26T10:36:42.329Z,958.71
2018-01-26T10:37:42.268Z,958.71
2018-01-26T10:38:42.208Z,958.79
2018-01-26T10:39:42.152Z,958.76
2018-01-26T10:40:42.092Z,958.76
2018-01-26T10:41:42.034Z,958.77
2018-01-26T10:42:41.974Z,958.78
2018-01-26T10:43:41.914Z,958.84
2018-01-26T10:44:41.856Z,958.81
2018-01-26T10:45:41.796Z,958.79
2018-01-26T10:46:41.737Z,958.81
2018-01-26T10:47:41.679Z,958.82
2018-01-26T10:48:41.619Z,958.80
2018-01-26T10:49:41.558Z,958.78
2018-01-26T10:50:41.501Z,958.78
2018-01-26T10:51:41.441Z,958.80
2018-01-26T10:52:41.380Z,958.79
2018-01-26T10:53:41.322Z,958.81
2018-01-26T10:54:41.264Z,958.80
2018-01-26T10:55:41.205Z,958.79
2018-01-26T10:56:41.148Z,958.84
2018-01-26T10:57:41.086Z,958.81
2018-01-26T10:58:41.028Z,958.84
2018-01-26T10:59:40.969Z,958.89
2018-01-26T11:00:40.911Z,958.82
2018-01-26T11:01:40.852Z,958.81
2018-01-26T11:02:40.795Z,958.82
2018-01-26T11:03:40.734Z,958.80
2018-01-26T11:04:40.678Z,958.86
2018-01-26T11:05:40.615Z,958.85
2018-01-26T11:06:40.564Z,958.86
2018-01-26T11:07:40.500Z,958.82
2018-01-26T11:08:40.440Z,958.83
2018-01-26T11:09:40.381Z,958.82
2018-01-26T11:10:40.322Z,958.80
2018-01-26T11:11:40.266Z,958.83
2018-01-26T11:12:40.208Z,958.84
2018-01-26T11:13:40.150Z,958.86
2018-01-26T11:14:40.089Z,958.85
2018-01-26T11:15:40.032Z,958.87
2018-01-26T11:16:39.972Z,958.94
2018-01-26T11:17:39.916Z,958.87
2018-01-26T11:18:39.856Z,958.85
2018-01-26T11:19:39.803Z,958.90
2018-01-26T11:20:39.740Z,958.85
2018-01-26T11:21:39.680Z,958.87
2018-01-26T11:22:39.623Z,958.91
2018-01-26T11:23:39.564Z,958.89
2018-01-26T11:24:39.505Z,958.92
2018-01-26T11:25:39.445Z,958.90
2018-01-26T11:26:39.388Z,958.87
2018-01-26T11:27:39.330Z,958.88
2018-01-26T11:28:39.274Z,958.89
2018-01-26T11:29:39.212Z,958.85
2018-01-26T11:30:39.155Z,958.83
2018-01-26T11:31:39.098Z,958.82
2018-01-26T11:32:39.042Z,958.80
2018-01-26T11:33:38.988Z,958.85
2018-01-26T11:34:38.923Z,958.82
2018-01-26T11:35:38.864Z,958.92
2018-01-26T11:36:38.806Z,958.89
2018-01-26T11:37:38.748Z,958.93
2018-01-26T11:38:38.693Z,958.92
2018-01-26T11:39:38.634Z,958.94
2018-01-26T11:40:38.575Z,958.90
2018-01-26T11:41:38.516Z,958.96
2018-01-26T11:42:38.460Z,958.90
2018-01-26T11:43:38.400Z,958.91
2018-01-26T11:44:38.345Z,958.94
2018-01-26T11:45:38.284Z,958.96
2018-01-26T11:46:38.278Z,959.02
2018-01-26T11:47:38.169Z,959.00
2018-01-26T11:48:38.112Z,959.01
2018-01-26T11:49:38.053Z,959.00
2018-01-26T11:50:37.995Z,959.03
2018-01-26T11:51:37.938Z,958.99
2018-01-26T11:52:37.892Z,958.96
2018-01-26T11:53:37.823Z,958.99
2018-01-26T11:54:37.764Z,958.97
2018-01-26T11:55:37.706Z,958.98
2018-01-26T11:56:37.651Z,958.96
2018-01-26T11:57:37.592Z,958.98
2018-01-26T11:58:37.534Z,958.95
2018-01-26T11:59:37.470Z,958.97
2018-01-26T12:00:37.420Z,958.97
2018-01-26T12:01:37.365Z,958.96
2018-01-26T12:02:37.303Z,958.97
2018-01-26T12:03:37.248Z,958.99
2018-01-26T12:04:37.189Z,959.04
2018-01-26T12:05:37.132Z,959.05
2018-01-26T12:06:37.075Z,959.04
2018-01-26T12:07:37.015Z,959.02
2018-01-26T12:08:36.957Z,959.00
2018-01-26T12:09:36.899Z,958.97
2018-01-26T12:10:36.845Z,958.93
2018-01-26T12:11:36.784Z,958.92
2018-01-26T12:12:36.727Z,958.96
2018-01-26T12:13:36.675Z,958.90
2018-01-26T12:14:36.611Z,958.92
2018-01-26T12:15:36.556Z,958.92
2018-01-26T12:16:36.496Z,958.93
2018-01-26T12:17:36.438Z,958.88
2018-01-26T12:18:36.380Z,958.88
2018-01-26T12:19:36.327Z,958.90
2018-01-26T12:20:36.267Z,958.89
2018-01-26T12:21:36.208Z,958.86
2018-01-26T12:22:36.153Z,958.83
2018-01-26T12:23:36.094Z,958.87
2018-01-26T12:24:36.037Z,958.86
2018-01-26T12:25:35.979Z,958.89
2018-01-26T12:26:35.924Z,958.88
2018-01-26T12:27:35.863Z,958.89